Time;durP1;ratioP1;P1;durP2;ratioP2;P2;SDS_P1;SDS_P2;PMS_P1;PMS_P2;Temp;Humidity;BMP_temperature;BMP_pressure;BME280_temperature;BME280_humidity;BME280_pressure;Samples;Min_cycle;Max_cycle;Signal;HPM_P1;HPM_P2
2022/07/02 00:01:17;;;;;;;;;;;14.80;99.90;;;;;;5002049;28;20017;-71
2022/07/02 00:03:50;;;;;;;;;;;14.90;99.90;;;;;;5004026;28;19925;-72
2022/07/02 00:06:17;;;;;;;;;;;14.90;99.90;;;;;;5000569;28;20001;-72
2022/07/02 00:08:43;;;;;;;;;;;15.00;99.90;;;;;;5004444;28;20009;-72
2022/07/02 00:11:13;;;;;;;;;;;15.10;99.90;;;;;;4997943;28;20025;-75
2022/07/02 00:13:40;;;;;;;;;;;15.10;99.90;;;;;;5002192;28;20008;-72
2022/07/02 00:16:11;;;;;;;;;;;15.20;99.90;;;;;;5007888;28;19926;-71
2022/07/02 00:18:38;;;;;;;;;;;15.20;99.90;;;;;;5001708;28;20372;-73
2022/07/02 00:21:04;;;;;;;;;;;15.20;99.90;;;;;;4999484;28;20025;-72
2022/07/02 00:23:31;;;;;;;;;;;15.20;99.90;;;;;;4994063;28;20321;-72
2022/07/02 00:25:59;;;;;;;;;;;15.20;99.90;;;;;;5005763;28;20368;-73
2022/07/02 00:28:27;;;;;;;;;;;15.10;99.90;;;;;;5002588;28;20016;-72
2022/07/02 00:30:54;;;;;;;;;;;15.10;99.90;;;;;;5003856;28;19925;-73
2022/07/02 00:33:24;;;;;;;;;;;15.00;99.90;;;;;;4994190;28;19929;-72
2022/07/02 00:35:51;;;;;;;;;;;15.00;99.90;;;;;;5008391;28;20020;-72
2022/07/02 00:38:18;;;;;;;;;;;14.90;99.90;;;;;;5008354;28;19953;-72
2022/07/02 00:40:45;;;;;;;;;;;14.80;99.90;;;;;;5002193;28;19933;-72
2022/07/02 00:43:12;;;;;;;;;;;14.80;99.90;;;;;;4998973;28;19965;-72
2022/07/02 00:45:39;;;;;;;;;;;14.80;99.90;;;;;;5000299;28;19968;-72
2022/07/02 00:48:06;;;;;;;;;;;14.80;99.90;;;;;;5004221;28;20024;-72
2022/07/02 00:50:34;;;;;;;;;;;14.80;99.90;;;;;;5003616;28;20024;-72
2022/07/02 00:53:01;;;;;;;;;;;14.80;99.90;;;;;;4997412;28;20316;-72
2022/07/02 00:55:27;;;;;;;;;;;14.70;99.90;;;;;;4999066;28;19925;-71
2022/07/02 00:57:54;;;;;;;;;;;14.70;99.90;;;;;;4996210;28;19957;-73
2022/07/02 01:00:21;;;;;;;;;;;14.70;99.90;;;;;;4994844;28;19929;-72
2022/07/02 01:02:48;;;;;;;;;;;14.70;99.90;;;;;;4997411;28;20021;-71
2022/07/02 01:05:16;;;;;;;;;;;14.70;99.90;;;;;;4996083;28;20370;-72
2022/07/02 01:07:46;;;;;;;;;;;14.80;99.90;;;;;;4996663;28;20016;-72
2022/07/02 01:10:19;;;;;;;;;;;14.80;99.90;;;;;;4995263;28;19993;-72
2022/07/02 01:12:46;;;;;;;;;;;14.80;99.90;;;;;;4992981;28;19985;-72
2022/07/02 01:15:13;;;;;;;;;;;14.80;99.90;;;;;;4995835;28;20025;-72
2022/07/02 01:17:40;;;;;;;;;;;14.80;99.90;;;;;;5001527;28;19926;-72
2022/07/02 01:20:07;;;;;;;;;;;14.80;99.90;;;;;;5001133;28;20029;-72
2022/07/02 01:22:36;;;;;;;;;;;14.80;99.90;;;;;;4999123;28;20409;-72
2022/07/02 01:25:04;;;;;;;;;;;14.80;99.90;;;;;;5002069;28;20356;-73
2022/07/02 01:27:30;;;;;;;;;;;14.90;99.90;;;;;;4998221;28;19926;-71
2022/07/02 01:29:57;;;;;;;;;;;14.90;99.90;;;;;;5002274;28;20011;-70
2022/07/02 01:32:24;;;;;;;;;;;15.00;99.90;;;;;;5005098;28;19969;-71
2022/07/02 01:34:51;;;;;;;;;;;15.00;99.90;;;;;;4995473;28;19929;-71
2022/07/02 01:37:19;;;;;;;;;;;15.00;99.90;;;;;;4996085;28;20017;-70
2022/07/02 01:39:47;;;;;;;;;;;15.10;99.90;;;;;;4994497;28;20084;-71
2022/07/02 01:42:14;;;;;;;;;;;15.10;99.90;;;;;;4998461;28;20029;-72
2022/07/02 01:44:41;;;;;;;;;;;15.20;99.90;;;;;;4997212;28;19929;-71
2022/07/02 01:47:09;;;;;;;;;;;15.20;99.90;;;;;;4999510;28;19937;-72
2022/07/02 01:49:36;;;;;;;;;;;15.20;99.90;;;;;;4997163;28;19933;-71
2022/07/02 01:52:03;;;;;;;;;;;15.20;99.90;;;;;;4995381;28;19930;-71
2022/07/02 01:54:30;;;;;;;;;;;15.30;99.90;;;;;;4997242;28;19976;-71
2022/07/02 01:56:59;;;;;;;;;;;15.30;99.90;;;;;;4994967;28;19925;-72
2022/07/02 01:59:25;;;;;;;;;;;15.30;99.90;;;;;;4996098;28;20401;-72
2022/07/02 02:01:52;;;;;;;;;;;15.30;99.90;;;;;;4988707;28;20029;-72
2022/07/02 02:04:19;;;;;;;;;;;15.40;99.90;;;;;;4994809;28;19972;-72
2022/07/02 02:06:46;;;;;;;;;;;15.40;99.90;;;;;;4993425;28;19948;-71
2022/07/02 02:09:12;;;;;;;;;;;15.40;99.90;;;;;;4996592;28;19929;-71
2022/07/02 02:11:39;;;;;;;;;;;15.50;99.90;;;;;;4993064;28;20005;-71
2022/07/02 02:14:08;;;;;;;;;;;15.40;99.90;;;;;;4999329;28;20027;-71
2022/07/02 02:16:34;;;;;;;;;;;15.40;99.90;;;;;;4999670;28;20269;-71
2022/07/02 02:19:01;;;;;;;;;;;15.40;99.90;;;;;;5002474;28;20377;-71
2022/07/02 02:21:28;;;;;;;;;;;15.40;99.90;;;;;;5002008;28;19933;-71
2022/07/02 02:23:55;;;;;;;;;;;15.40;99.90;;;;;;5002788;28;20020;-71
2022/07/02 02:26:26;;;;;;;;;;;15.40;99.90;;;;;;5002035;28;20368;-74
2022/07/02 02:28:53;;;;;;;;;;;15.40;99.90;;;;;;4994584;28;19980;-71
2022/07/02 02:31:21;;;;;;;;;;;15.40;99.90;;;;;;4999663;28;20293;-71
2022/07/02 02:33:48;;;;;;;;;;;15.40;99.90;;;;;;5008564;28;20008;-71
2022/07/02 02:36:15;;;;;;;;;;;15.40;99.90;;;;;;4996660;28;20020;-71
2022/07/02 02:38:42;;;;;;;;;;;15.40;99.90;;;;;;5006297;28;20162;-71
2022/07/02 02:41:09;;;;;;;;;;;15.40;99.90;;;;;;5004383;28;20017;-71
2022/07/02 02:43:36;;;;;;;;;;;15.30;99.90;;;;;;5000411;28;19940;-72
2022/07/02 02:46:03;;;;;;;;;;;15.20;99.90;;;;;;4999053;28;19933;-71
2022/07/02 02:48:32;;;;;;;;;;;15.10;99.90;;;;;;5001472;28;19925;-71
2022/07/02 02:50:59;;;;;;;;;;;14.90;99.90;;;;;;5006136;28;19973;-71
2022/07/02 02:53:26;;;;;;;;;;;14.80;99.90;;;;;;5001326;28;20325;-71
2022/07/02 02:55:52;;;;;;;;;;;14.70;99.90;;;;;;4995979;28;19925;-71
2022/07/02 02:58:19;;;;;;;;;;;14.60;99.90;;;;;;4998120;28;20412;-70
2022/07/02 03:00:46;;;;;;;;;;;14.60;99.90;;;;;;4999407;28;19972;-70
2022/07/02 03:03:12;;;;;;;;;;;14.60;99.90;;;;;;5000455;28;20385;-70
2022/07/02 03:05:41;;;;;;;;;;;14.60;99.90;;;;;;4999130;28;19929;-71
2022/07/02 03:08:07;;;;;;;;;;;14.50;99.90;;;;;;5001070;28;19969;-70
2022/07/02 03:10:34;;;;;;;;;;;14.50;99.90;;;;;;5000367;28;20016;-71
2022/07/02 03:13:01;;;;;;;;;;;14.40;99.90;;;;;;4999146;28;20473;-73
2022/07/02 03:15:29;;;;;;;;;;;14.40;99.90;;;;;;5002119;28;20222;-72
2022/07/02 03:17:56;;;;;;;;;;;14.40;99.90;;;;;;4998636;28;19926;-73
2022/07/02 03:20:22;;;;;;;;;;;14.40;99.90;;;;;;4993603;28;19981;-72
2022/07/02 03:22:50;;;;;;;;;;;14.40;99.90;;;;;;4995992;28;19935;-72
2022/07/02 03:25:17;;;;;;;;;;;14.40;99.90;;;;;;5001827;28;20032;-72
2022/07/02 03:27:44;;;;;;;;;;;14.50;99.90;;;;;;5008946;28;19925;-72
2022/07/02 03:30:11;;;;;;;;;;;14.50;99.90;;;;;;5003599;28;19926;-70
2022/07/02 03:32:38;;;;;;;;;;;14.50;99.90;;;;;;5007326;28;20385;-72
2022/07/02 03:35:05;;;;;;;;;;;14.60;99.90;;;;;;5007965;28;20004;-72
2022/07/02 03:37:32;;;;;;;;;;;14.60;99.90;;;;;;5004437;28;19929;-72
2022/07/02 03:40:00;;;;;;;;;;;14.60;99.90;;;;;;5006926;28;20354;-71
2022/07/02 03:42:26;;;;;;;;;;;14.60;99.90;;;;;;5006548;28;19926;-71
2022/07/02 03:44:53;;;;;;;;;;;14.60;99.90;;;;;;5002687;28;19964;-71
2022/07/02 03:47:20;;;;;;;;;;;14.70;99.90;;;;;;5010144;28;19926;-72
2022/07/02 03:49:46;;;;;;;;;;;14.70;99.90;;;;;;5008981;28;20282;-72
2022/07/02 03:52:13;;;;;;;;;;;14.70;99.90;;;;;;5002046;28;19957;-72
2022/07/02 03:54:40;;;;;;;;;;;14.70;99.90;;;;;;5004971;28;19979;-71
2022/07/02 03:57:08;;;;;;;;;;;14.80;99.90;;;;;;5006433;28;19972;-70
2022/07/02 03:59:35;;;;;;;;;;;14.80;99.90;;;;;;5006073;28;20032;-71
2022/07/02 04:02:01;;;;;;;;;;;14.70;99.90;;;;;;5001217;28;19929;-69
2022/07/02 04:04:28;;;;;;;;;;;14.70;99.90;;;;;;5005155;28;20033;-70
2022/07/02 04:06:55;;;;;;;;;;;14.70;99.90;;;;;;5003961;28;19968;-71
2022/07/02 04:09:21;;;;;;;;;;;14.60;99.90;;;;;;5001071;28;19936;-71
2022/07/02 04:11:48;;;;;;;;;;;14.60;99.90;;;;;;4999008;28;20372;-71
2022/07/02 04:14:16;;;;;;;;;;;14.50;99.90;;;;;;5004459;28;20028;-71
2022/07/02 04:16:43;;;;;;;;;;;14.50;99.90;;;;;;5004965;28;20032;-71
2022/07/02 04:19:09;;;;;;;;;;;14.40;99.90;;;;;;5007043;28;20017;-70
2022/07/02 04:21:36;;;;;;;;;;;14.40;99.90;;;;;;5003837;28;19974;-71
2022/07/02 04:24:03;;;;;;;;;;;14.30;99.90;;;;;;5001326;28;20471;-70
2022/07/02 04:26:30;;;;;;;;;;;14.30;99.90;;;;;;5008883;28;19961;-71
2022/07/02 04:28:56;;;;;;;;;;;14.40;99.90;;;;;;5006674;28;19972;-70
2022/07/02 04:31:24;;;;;;;;;;;14.40;99.90;;;;;;5003783;28;19930;-70
2022/07/02 04:33:51;;;;;;;;;;;14.50;99.90;;;;;;5008326;28;19925;-71
2022/07/02 04:36:18;;;;;;;;;;;14.60;99.90;;;;;;5003976;28;19965;-72
2022/07/02 04:38:44;;;;;;;;;;;14.70;99.90;;;;;;5006890;28;19976;-72
2022/07/02 04:41:11;;;;;;;;;;;14.80;99.90;;;;;;4995336;28;20364;-72
2022/07/02 04:43:38;;;;;;;;;;;14.90;99.90;;;;;;5003756;28;20131;-72
2022/07/02 04:46:05;;;;;;;;;;;15.00;99.90;;;;;;5005415;28;20292;-71
2022/07/02 04:48:33;;;;;;;;;;;15.00;99.90;;;;;;5001892;28;20019;-72
2022/07/02 04:50:59;;;;;;;;;;;15.00;99.90;;;;;;4997403;28;20444;-72
2022/07/02 04:53:26;;;;;;;;;;;15.10;99.90;;;;;;5004906;28;19956;-71
2022/07/02 04:55:53;;;;;;;;;;;15.10;99.90;;;;;;5000590;28;20427;-72
2022/07/02 04:58:20;;;;;;;;;;;15.20;99.90;;;;;;5006850;28;19925;-71
2022/07/02 05:00:46;;;;;;;;;;;15.10;99.90;;;;;;5001587;28;19976;-71
2022/07/02 05:03:13;;;;;;;;;;;15.20;99.90;;;;;;4998092;28;20024;-71
2022/07/02 05:05:41;;;;;;;;;;;15.10;99.90;;;;;;5001622;28;20067;-71
2022/07/02 05:08:08;;;;;;;;;;;15.10;99.90;;;;;;4998865;28;19932;-71
2022/07/02 05:10:34;;;;;;;;;;;15.00;99.90;;;;;;5001761;28;19992;-71
2022/07/02 05:13:03;;;;;;;;;;;15.00;99.90;;;;;;5000457;28;19933;-71
2022/07/02 05:15:30;;;;;;;;;;;15.00;99.90;;;;;;4995489;28;19932;-70
2022/07/02 05:17:57;;;;;;;;;;;15.00;99.90;;;;;;4994162;28;20036;-71
2022/07/02 05:20:28;;;;;;;;;;;15.00;99.90;;;;;;4994013;28;20008;-70
2022/07/02 05:22:56;;;;;;;;;;;15.00;99.90;;;;;;4999465;28;19926;-70
2022/07/02 05:25:22;;;;;;;;;;;15.10;99.90;;;;;;5001452;28;20554;-71
2022/07/02 05:27:49;;;;;;;;;;;15.10;99.90;;;;;;5004192;28;19968;-72
2022/07/02 05:30:16;;;;;;;;;;;15.10;99.90;;;;;;4999611;28;19988;-72
2022/07/02 05:32:42;;;;;;;;;;;15.20;99.90;;;;;;5005715;28;19960;-72
2022/07/02 05:35:09;;;;;;;;;;;15.30;99.90;;;;;;5001672;28;19925;-73
2022/07/02 05:37:36;;;;;;;;;;;15.30;99.90;;;;;;4998708;28;20005;-74
2022/07/02 05:40:05;;;;;;;;;;;15.40;99.90;;;;;;5007148;28;20392;-73
2022/07/02 05:42:31;;;;;;;;;;;15.70;99.90;;;;;;4992657;28;20009;-73
2022/07/02 05:44:58;;;;;;;;;;;15.80;99.90;;;;;;5005396;28;19968;-75
2022/07/02 05:47:25;;;;;;;;;;;16.00;99.90;;;;;;5000514;28;19936;-77
2022/07/02 05:49:52;;;;;;;;;;;16.20;99.90;;;;;;5004859;28;19929;-76
2022/07/02 05:52:19;;;;;;;;;;;16.30;99.90;;;;;;5000876;28;19932;-77
2022/07/02 05:54:46;;;;;;;;;;;16.40;99.60;;;;;;5001223;28;20037;-78
2022/07/02 05:57:14;;;;;;;;;;;16.60;99.10;;;;;;4998967;28;19951;-78
2022/07/02 05:59:41;;;;;;;;;;;16.60;97.70;;;;;;5005699;28;20016;-80
2022/07/02 06:02:08;;;;;;;;;;;16.60;97.60;;;;;;4998028;28;20012;-79
2022/07/02 06:04:34;;;;;;;;;;;17.20;96.80;;;;;;4993285;28;20051;-73
2022/07/02 06:09:46;;;;;;;;;;;22.00;80.90;;;;;;5000252;28;20367;-72
2022/07/02 06:12:14;;;;;;;;;;;24.40;55.50;;;;;;5002783;28;20307;-73
2022/07/02 06:14:41;;;;;;;;;;;25.10;44.00;;;;;;4992956;28;20090;-73
2022/07/02 06:17:07;;;;;;;;;;;25.70;37.40;;;;;;5000241;28;20372;-73
2022/07/02 06:19:34;;;;;;;;;;;26.10;32.40;;;;;;4999265;28;19965;-73
2022/07/02 06:22:01;;;;;;;;;;;26.80;29.80;;;;;;4998109;28;19937;-74
2022/07/02 06:24:28;;;;;;;;;;;27.50;26.70;;;;;;4995905;28;20014;-73
2022/07/02 06:26:54;;;;;;;;;;;28.10;24.00;;;;;;5002476;28;19929;-74
2022/07/02 06:29:22;;;;;;;;;;;28.50;23.20;;;;;;4997889;28;20002;-75
2022/07/02 06:31:49;;;;;;;;;;;29.70;20.80;;;;;;4997305;28;19929;-74
2022/07/02 06:34:16;;;;;;;;;;;29.30;17.80;;;;;;4997662;28;20000;-71
2022/07/02 06:36:43;;;;;;;;;;;29.70;37.50;;;;;;4997352;28;22849;-73
2022/07/02 06:39:10;;;;;;;;;;;;;;;;;;4991568;28;19925;-73
2022/07/02 06:44:22;;;;;;;;;;;31.50;12.50;;;;;;4999374;28;19933;-74
2022/07/02 06:46:49;;;;;;;;;;;31.60;10.90;;;;;;4995211;28;20330;-72
2022/07/02 06:49:16;;;;;;;;;;;31.60;9.90;;;;;;4995628;28;19926;-72
2022/07/02 06:51:43;;;;;;;;;;;31.90;9.10;;;;;;4999277;28;19930;-72
2022/07/02 06:54:10;;;;;;;;;;;31.90;8.10;;;;;;4999900;28;20358;-73
2022/07/02 06:56:36;;;;;;;;;;;31.80;7.30;;;;;;5000115;28;19926;-71
2022/07/02 06:59:05;;;;;;;;;;;31.10;7.70;;;;;;4996020;28;20012;-71
2022/07/02 07:01:33;;;;;;;;;;;30.90;8.50;;;;;;5001914;28;19926;-74
2022/07/02 07:04:00;;;;;;;;;;;31.20;7.80;;;;;;5009808;28;20016;-76
2022/07/02 07:06:27;;;;;;;;;;;30.90;7.20;;;;;;5009708;28;19949;-73
2022/07/02 07:08:54;;;;;;;;;;;30.40;7.80;;;;;;5008282;28;19996;-75
2022/07/02 07:11:21;;;;;;;;;;;30.80;8.10;;;;;;5000334;28;19985;-74
2022/07/02 07:13:48;;;;;;;;;;;31.40;7.70;;;;;;5009505;28;19932;-74
2022/07/02 07:16:15;;;;;;;;;;;31.30;7.10;;;;;;4999103;28;20016;-74
2022/07/02 07:18:44;;;;;;;;;;;31.50;6.40;;;;;;4994409;28;19926;-77
2022/07/02 07:21:11;;;;;;;;;;;31.30;6.60;;;;;;5001585;28;19925;-79
2022/07/02 07:23:38;;;;;;;;;;;31.40;6.40;;;;;;5001914;28;20378;-76
2022/07/02 07:26:04;;;;;;;;;;;31.80;6.90;;;;;;5002629;28;19975;-80
2022/07/02 07:28:31;;;;;;;;;;;31.80;7.10;;;;;;4999954;28;20020;-75
2022/07/02 07:30:58;;;;;;;;;;;32.50;6.60;;;;;;4999702;28;20376;-77
2022/07/02 07:33:25;;;;;;;;;;;32.40;6.30;;;;;;4999770;28;19933;-76
2022/07/02 07:35:53;;;;;;;;;;;32.30;6.50;;;;;;4996914;28;20364;-74
2022/07/02 07:38:20;;;;;;;;;;;32.00;6.60;;;;;;4997919;28;20044;-73
2022/07/02 07:40:47;;;;;;;;;;;32.30;6.30;;;;;;4992306;28;20024;-73
2022/07/02 07:43:13;;;;;;;;;;;31.90;7.10;;;;;;5000634;28;19933;-73
2022/07/02 07:45:40;;;;;;;;;;;30.30;9.10;;;;;;5002138;28;19988;-76
2022/07/02 07:48:07;;;;;;;;;;;31.80;6.80;;;;;;4992586;28;19930;-73
2022/07/02 07:50:33;;;;;;;;;;;32.40;6.70;;;;;;5001172;28;20032;-74
2022/07/02 07:53:01;;;;;;;;;;;32.70;6.50;;;;;;4999598;28;19973;-76
2022/07/02 07:55:28;;;;;;;;;;;31.70;7.50;;;;;;4995111;28;20672;-76
2022/07/02 07:57:55;;;;;;;;;;;32.70;6.10;;;;;;4997579;28;19925;-75
2022/07/02 08:00:21;;;;;;;;;;;33.00;5.80;;;;;;4995455;28;19934;-75
2022/07/02 08:02:48;;;;;;;;;;;32.90;5.80;;;;;;4994892;28;19932;-75
2022/07/02 08:05:15;;;;;;;;;;;32.40;6.20;;;;;;4992773;28;19957;-75
2022/07/02 08:07:42;;;;;;;;;;;32.40;6.10;;;;;;4990918;28;20028;-76
2022/07/02 08:10:11;;;;;;;;;;;32.80;6.10;;;;;;4994248;28;19933;-75
2022/07/02 08:12:38;;;;;;;;;;;32.90;5.10;;;;;;4993023;28;20415;-75
2022/07/02 08:15:05;;;;;;;;;;;31.80;5.80;;;;;;4994613;28;19967;-75
2022/07/02 08:17:32;;;;;;;;;;;31.50;5.90;;;;;;5002184;28;20009;-74
2022/07/02 08:19:58;;;;;;;;;;;31.80;5.90;;;;;;4993410;28;19957;-74
2022/07/02 08:22:25;;;;;;;;;;;32.90;5.00;;;;;;4993634;28;19933;-76
2022/07/02 08:24:52;;;;;;;;;;;29.20;7.70;;;;;;5000339;28;20112;-75
2022/07/02 08:27:20;;;;;;;;;;;30.00;8.10;;;;;;4997528;28;19978;-76
2022/07/02 08:29:47;;;;;;;;;;;29.40;9.30;;;;;;4998258;28;20012;-74
2022/07/02 08:32:13;;;;;;;;;;;30.60;6.80;;;;;;5001868;28;20005;-74
2022/07/02 08:34:40;;;;;;;;;;;31.40;5.70;;;;;;4996866;28;20053;-75
2022/07/02 08:37:07;;;;;;;;;;;31.60;5.80;;;;;;5008828;28;20448;-73
2022/07/02 08:39:34;;;;;;;;;;;31.70;5.10;;;;;;5012184;28;19929;-74
2022/07/02 08:42:01;;;;;;;;;;;31.70;5.50;;;;;;5003860;28;20441;-75
2022/07/02 08:44:30;;;;;;;;;;;32.00;5.40;;;;;;4993361;28;20020;-75
2022/07/02 08:46:57;;;;;;;;;;;32.70;4.20;;;;;;5005734;28;20290;-75
2022/07/02 08:49:25;;;;;;;;;;;32.00;5.40;;;;;;5005097;28;20416;-75
2022/07/02 08:51:57;;;;;;;;;;;33.10;3.90;;;;;;5003447;28;19926;-76
2022/07/02 08:54:24;;;;;;;;;;;33.30;2.90;;;;;;5007006;28;19936;-75
2022/07/02 08:56:51;;;;;;;;;;;32.90;3.50;;;;;;5003515;28;20005;-75
2022/07/02 08:59:18;;;;;;;;;;;32.70;4.60;;;;;;5005691;28;20025;-76
2022/07/02 09:01:46;;;;;;;;;;;32.70;3.90;;;;;;5001675;28;20305;-74
2022/07/02 09:04:13;;;;;;;;;;;32.60;4.20;;;;;;5007189;28;19929;-74
2022/07/02 09:06:40;;;;;;;;;;;32.50;3.40;;;;;;5007541;28;20028;-75
2022/07/02 09:09:08;;;;;;;;;;;31.80;4.10;;;;;;5006987;28;19925;-76
2022/07/02 09:11:35;;;;;;;;;;;31.30;5.10;;;;;;5007385;28;20019;-75
2022/07/02 09:14:02;;;;;;;;;;;31.20;5.10;;;;;;4995571;28;19962;-76
2022/07/02 09:16:29;;;;;;;;;;;30.70;6.00;;;;;;5004199;28;19926;-75
2022/07/02 09:18:57;;;;;;;;;;;30.50;6.10;;;;;;5009266;28;19960;-74
2022/07/02 09:21:24;;;;;;;;;;;30.80;5.80;;;;;;4993467;28;19965;-75
2022/07/02 09:23:51;;;;;;;;;;;30.10;6.40;;;;;;4992918;28;20274;-75
2022/07/02 09:26:18;;;;;;;;;;;29.90;6.90;;;;;;5006059;28;19925;-75
2022/07/02 09:28:51;;;;;;;;;;;30.50;6.30;;;;;;4994949;28;20029;-76
2022/07/02 09:31:18;;;;;;;;;;;31.00;6.40;;;;;;4996811;28;19963;-75
2022/07/02 09:33:44;;;;;;;;;;;31.20;5.90;;;;;;4994693;28;19972;-74
2022/07/02 09:36:13;;;;;;;;;;;31.20;5.70;;;;;;4999527;28;19932;-75
2022/07/02 09:38:41;;;;;;;;;;;30.70;6.10;;;;;;4995121;28;19977;-75
2022/07/02 09:41:11;;;;;;;;;;;30.70;5.70;;;;;;5000836;28;19968;-75
2022/07/02 09:43:38;;;;;;;;;;;30.70;6.50;;;;;;4996224;28;20024;-75
2022/07/02 09:46:14;;;;;;;;;;;30.90;6.40;;;;;;4991788;28;19926;-75
2022/07/02 09:48:41;;;;;;;;;;;31.50;6.00;;;;;;5008078;28;19925;-74
2022/07/02 09:51:08;;;;;;;;;;;31.10;5.10;;;;;;5003123;28;19925;-75
2022/07/02 09:53:46;;;;;;;;;;;30.70;5.10;;;;;;4996404;28;20005;-75
2022/07/02 09:56:13;;;;;;;;;;;29.80;6.00;;;;;;5001390;28;19964;-75
2022/07/02 09:58:40;;;;;;;;;;;29.30;7.30;;;;;;4999116;28;20403;-75
2022/07/02 10:01:07;;;;;;;;;;;29.20;6.80;;;;;;5000483;28;19925;-73
2022/07/02 10:03:45;;;;;;;;;;;28.80;7.80;;;;;;4996735;28;19937;-75
2022/07/02 10:06:12;;;;;;;;;;;27.10;9.20;;;;;;4994799;28;20005;-75
2022/07/02 10:08:41;;;;;;;;;;;27.20;9.10;;;;;;4992937;28;19925;-75
2022/07/02 10:11:08;;;;;;;;;;;27.80;8.50;;;;;;4996598;28;20021;-75
2022/07/02 10:13:36;;;;;;;;;;;28.30;7.70;;;;;;5007589;28;20105;-75
2022/07/02 10:16:04;;;;;;;;;;;28.10;7.60;;;;;;5000354;28;19961;-75
2022/07/02 10:18:31;;;;;;;;;;;27.30;9.30;;;;;;5005809;28;20368;-76
2022/07/02 10:20:59;;;;;;;;;;;26.00;11.30;;;;;;5002348;28;20024;-81
2022/07/02 10:23:27;;;;;;;;;;;25.40;11.70;;;;;;5004509;28;19929;-75
2022/07/02 10:25:55;;;;;;;;;;;25.50;11.90;;;;;;5005129;28;19977;-75
2022/07/02 10:28:22;;;;;;;;;;;25.20;10.60;;;;;;5008065;28;20381;-74
2022/07/02 10:30:49;;;;;;;;;;;25.20;11.00;;;;;;5005048;28;19929;-72
2022/07/02 10:33:19;;;;;;;;;;;25.20;10.90;;;;;;5008999;28;20020;-74
2022/07/02 10:35:47;;;;;;;;;;;25.00;12.00;;;;;;5005953;28;20024;-74
2022/07/02 10:38:14;;;;;;;;;;;25.30;11.60;;;;;;5007217;28;19926;-73
2022/07/02 10:40:47;;;;;;;;;;;25.20;11.60;;;;;;5006911;28;20016;-76
2022/07/02 10:43:17;;;;;;;;;;;25.10;12.10;;;;;;5006805;28;19932;-73
2022/07/02 10:45:43;;;;;;;;;;;25.20;11.00;;;;;;5008104;28;20033;-74
2022/07/02 10:48:12;;;;;;;;;;;25.50;11.30;;;;;;5006840;28;19929;-75
2022/07/02 10:50:40;;;;;;;;;;;25.70;11.50;;;;;;5003360;28;19933;-74
2022/07/02 10:53:07;;;;;;;;;;;25.30;12.00;;;;;;5008313;28;20003;-75
2022/07/02 10:55:34;;;;;;;;;;;25.00;13.10;;;;;;5006278;28;19972;-75
2022/07/02 10:58:02;;;;;;;;;;;25.10;13.30;;;;;;5008845;28;19972;-74
2022/07/02 11:00:31;;;;;;;;;;;25.00;13.40;;;;;;5007096;28;19960;-74
2022/07/02 11:02:58;;;;;;;;;;;24.90;13.70;;;;;;5007040;28;20024;-75
2022/07/02 11:05:25;;;;;;;;;;;25.10;14.10;;;;;;5005327;28;20109;-74
2022/07/02 11:07:52;;;;;;;;;;;25.10;14.00;;;;;;5007774;28;19925;-73
2022/07/02 11:10:26;;;;;;;;;;;25.30;13.50;;;;;;5005688;28;20042;-74
2022/07/02 11:12:56;;;;;;;;;;;25.60;13.60;;;;;;5009251;28;19936;-74
2022/07/02 11:15:36;;;;;;;;;;;25.80;13.90;;;;;;5008407;28;19936;-73
2022/07/02 11:18:06;;;;;;;;;;;25.30;13.90;;;;;;5007151;28;19973;-73
2022/07/02 11:20:34;;;;;;;;;;;24.70;13.90;;;;;;5006324;28;19925;-75
2022/07/02 11:23:01;;;;;;;;;;;24.60;14.20;;;;;;5006878;28;20371;-74
2022/07/02 11:25:29;;;;;;;;;;;25.00;13.80;;;;;;5003444;28;19938;-75
2022/07/02 11:27:57;;;;;;;;;;;25.60;13.60;;;;;;5006509;28;20296;-74
2022/07/02 11:30:24;;;;;;;;;;;25.70;12.30;;;;;;5007049;28;19930;-74
2022/07/02 11:32:51;;;;;;;;;;;25.70;12.60;;;;;;5008105;28;20355;-74
2022/07/02 11:35:19;;;;;;;;;;;25.50;13.10;;;;;;5005515;28;20012;-74
2022/07/02 11:37:46;;;;;;;;;;;25.50;13.00;;;;;;5006338;28;19929;-74
2022/07/02 11:40:18;;;;;;;;;;;25.50;13.20;;;;;;5005698;28;20012;-74
2022/07/02 11:42:45;;;;;;;;;;;25.70;13.40;;;;;;5006091;28;20017;-74
2022/07/02 11:45:11;;;;;;;;;;;25.60;13.40;;;;;;5005050;28;19934;-74
2022/07/02 11:47:42;;;;;;;;;;;25.50;13.00;;;;;;5007968;28;20016;-75
2022/07/02 11:50:09;;;;;;;;;;;25.70;12.40;;;;;;5001962;28;20024;-75
2022/07/02 11:52:37;;;;;;;;;;;25.70;12.90;;;;;;5007628;28;20424;-75
2022/07/02 11:55:04;;;;;;;;;;;25.50;13.10;;;;;;5003261;28;19933;-75
2022/07/02 11:57:34;;;;;;;;;;;25.30;13.40;;;;;;5006730;28;20259;-75
2022/07/02 12:00:01;;;;;;;;;;;25.00;13.20;;;;;;5006359;28;20036;-76
2022/07/02 12:02:36;;;;;;;;;;;24.90;13.60;;;;;;5004380;28;19925;-76
2022/07/02 12:05:13;;;;;;;;;;;24.80;13.50;;;;;;5005424;28;20369;-76
2022/07/02 12:07:43;;;;;;;;;;;25.10;13.20;;;;;;5006505;28;19965;-75
2022/07/02 12:10:10;;;;;;;;;;;25.10;13.90;;;;;;5002687;28;19949;-76
2022/07/02 12:12:37;;;;;;;;;;;25.00;13.80;;;;;;5007403;28;19925;-76
2022/07/02 12:15:04;;;;;;;;;;;25.20;14.00;;;;;;5005032;28;20004;-76
2022/07/02 12:17:31;;;;;;;;;;;25.60;13.50;;;;;;5008235;28;19973;-76
2022/07/02 12:19:58;;;;;;;;;;;25.40;12.70;;;;;;5005570;28;19937;-76
2022/07/02 12:22:25;;;;;;;;;;;25.40;13.30;;;;;;5007114;28;19929;-76
2022/07/02 12:24:53;;;;;;;;;;;25.30;13.90;;;;;;5002986;28;20304;-77
2022/07/02 12:27:23;;;;;;;;;;;25.40;13.20;;;;;;5006006;28;19979;-76
2022/07/02 12:29:56;;;;;;;;;;;25.50;12.40;;;;;;5005522;28;20016;-75
2022/07/02 12:32:24;;;;;;;;;;;25.40;13.50;;;;;;5002741;28;19931;-76
2022/07/02 12:34:52;;;;;;;;;;;25.50;13.20;;;;;;4994251;28;20266;-75
2022/07/02 12:37:25;;;;;;;;;;;25.70;13.40;;;;;;4993247;28;20024;-76
2022/07/02 12:39:59;;;;;;;;;;;26.00;12.70;;;;;;5007586;28;20452;-76
2022/07/02 12:42:26;;;;;;;;;;;25.70;12.10;;;;;;4993625;28;20353;-75
2022/07/02 12:44:57;;;;;;;;;;;25.20;12.60;;;;;;4992826;28;19932;-76
2022/07/02 12:47:24;;;;;;;;;;;24.80;13.60;;;;;;5013195;28;20359;-75
2022/07/02 12:49:58;;;;;;;;;;;25.00;14.10;;;;;;4994201;28;20284;-75
2022/07/02 12:52:27;;;;;;;;;;;25.20;13.40;;;;;;5013265;28;19964;-76
2022/07/02 12:54:53;;;;;;;;;;;25.60;12.80;;;;;;5002627;28;20317;-76
2022/07/02 12:57:22;;;;;;;;;;;25.70;12.60;;;;;;5011619;28;19969;-76
2022/07/02 12:59:50;;;;;;;;;;;25.80;12.40;;;;;;4993816;28;20024;-77
2022/07/02 13:02:19;;;;;;;;;;;25.80;12.00;;;;;;5012413;28;19925;-76
2022/07/02 13:04:46;;;;;;;;;;;26.00;12.60;;;;;;4994115;28;19985;-76
2022/07/02 13:07:14;;;;;;;;;;;26.00;11.60;;;;;;5011096;28;20392;-76
2022/07/02 13:09:40;;;;;;;;;;;26.10;11.80;;;;;;5000360;28;19926;-76
2022/07/02 13:12:07;;;;;;;;;;;26.20;11.40;;;;;;5010112;28;19925;-76
2022/07/02 13:14:35;;;;;;;;;;;26.20;11.80;;;;;;4993900;28;20338;-76
2022/07/02 13:17:02;;;;;;;;;;;26.00;11.90;;;;;;5009030;28;19926;-77
2022/07/02 13:19:28;;;;;;;;;;;26.00;11.60;;;;;;4996130;28;20432;-76
2022/07/02 13:21:55;;;;;;;;;;;25.80;12.10;;;;;;5008567;28;20003;-77
2022/07/02 13:24:22;;;;;;;;;;;26.10;12.30;;;;;;5006838;28;19967;-76
2022/07/02 13:26:49;;;;;;;;;;;26.20;12.70;;;;;;5011051;28;19953;-76
2022/07/02 13:29:15;;;;;;;;;;;25.80;12.00;;;;;;5001642;28;20356;-76
2022/07/02 13:31:43;;;;;;;;;;;25.80;12.80;;;;;;5011344;28;20562;-76
2022/07/02 13:34:10;;;;;;;;;;;25.90;12.70;;;;;;4999089;28;20444;-75
2022/07/02 13:36:37;;;;;;;;;;;26.10;12.20;;;;;;5005967;28;20024;-76
2022/07/02 13:39:03;;;;;;;;;;;26.30;11.70;;;;;;5007796;28;20012;-75
2022/07/02 13:41:30;;;;;;;;;;;26.50;11.50;;;;;;5010667;28;19961;-75
2022/07/02 13:43:57;;;;;;;;;;;26.80;11.30;;;;;;5003903;28;19968;-75
2022/07/02 13:46:24;;;;;;;;;;;26.80;11.80;;;;;;5005337;28;19932;-75
2022/07/02 13:48:53;;;;;;;;;;;26.60;11.30;;;;;;4999837;28;19976;-75
2022/07/02 13:51:19;;;;;;;;;;;26.20;11.60;;;;;;4984090;28;19933;-75
2022/07/02 13:53:46;;;;;;;;;;;26.00;12.10;;;;;;4997595;28;19973;-75
2022/07/02 13:56:13;;;;;;;;;;;26.00;12.80;;;;;;4994109;28;20478;-76
2022/07/02 13:58:39;;;;;;;;;;;26.10;12.60;;;;;;4989623;28;19996;-75
2022/07/02 14:01:07;;;;;;;;;;;26.20;12.30;;;;;;4999680;28;20436;-75
2022/07/02 14:03:33;;;;;;;;;;;26.50;12.00;;;;;;4993234;28;20028;-76
2022/07/02 14:06:01;;;;;;;;;;;26.90;12.30;;;;;;4992221;28;20021;-76
2022/07/02 14:08:28;;;;;;;;;;;27.00;11.10;;;;;;4993123;28;19953;-76
2022/07/02 14:10:56;;;;;;;;;;;27.10;11.30;;;;;;4992026;28;19930;-77
2022/07/02 14:13:22;;;;;;;;;;;27.30;10.90;;;;;;4995801;28;19944;-76
2022/07/02 14:15:49;;;;;;;;;;;27.20;10.70;;;;;;4998794;28;20141;-77
2022/07/02 14:18:16;;;;;;;;;;;26.90;11.30;;;;;;4998688;28;19929;-76
2022/07/02 14:20:43;;;;;;;;;;;26.60;11.20;;;;;;4995936;28;19940;-76
2022/07/02 14:23:11;;;;;;;;;;;26.60;11.80;;;;;;4993805;28;20108;-80
2022/07/02 14:25:37;;;;;;;;;;;26.60;11.40;;;;;;4993182;28;19930;-76
2022/07/02 14:28:04;;;;;;;;;;;26.50;12.00;;;;;;4995378;28;20024;-77